Chisholm Hibbing Airport


Codes: KHIB/HIB
Name: Chisholm Hibbing Airport
City: Hibbing
Country: United States
Elevation: 1354 ft.
Wikipedia:

Photos at Chisholm Hibbing Airport


   Photos courtesy of SpottingLog. You can add your own sightings and photos by signing up for a free trial today.



No photos found.

Weather at Chisholm Hibbing Airport


Time (UTC)DescriptionTempratureWindCloud coverageVisibilityPressureHumidity
16-Jun-2024 00:00Few Clouds19°C11 mph, S20%10000m1010hPa67%
16-Jun-2024 03:00Light Rain17°C11 mph, SE47%10000m1010hPa76%
16-Jun-2024 06:00Light Rain15°C9 mph, SE73%5237m1008hPa89%
16-Jun-2024 09:00Overcast Clouds15°C9 mph, N100%0m1004hPa99%
16-Jun-2024 12:00Light Rain16°C7 mph, SE100%311m1003hPa99%
16-Jun-2024 15:00Light Rain17°C7 mph, S100%426m1002hPa99%
16-Jun-2024 18:00Overcast Clouds22°C7 mph, SW100%10000m1001hPa80%
16-Jun-2024 21:00Light Rain24°C7 mph, NW99%10000m1001hPa83%
17-Jun-2024 00:00Light Rain20°C4 mph, W97%10000m1004hPa95%
17-Jun-2024 03:00Light Rain15°C7 mph, W96%10000m1007hPa81%
17-Jun-2024 06:00Broken Clouds11°C4 mph, W81%10000m1009hPa76%
17-Jun-2024 09:00Few Clouds10°C4 mph, W11%10000m1010hPa81%
17-Jun-2024 12:00Broken Clouds13°C2 mph, NW56%10000m1011hPa74%
17-Jun-2024 15:00Overcast Clouds15°C4 mph, SW100%10000m1012hPa71%
17-Jun-2024 18:00Overcast Clouds16°C4 mph, S100%10000m1011hPa62%
17-Jun-2024 21:00Overcast Clouds17°C4 mph, SE100%10000m1010hPa67%
18-Jun-2024 00:00Overcast Clouds15°C7 mph, SE100%10000m1009hPa82%
18-Jun-2024 03:00Light Rain13°C9 mph, E100%10000m1007hPa99%
18-Jun-2024 06:00Light Rain13°C9 mph, E100%135m1004hPa99%
18-Jun-2024 09:00Heavy Intensity Rain15°C7 mph, SE100%108m1001hPa99%
18-Jun-2024 12:00Heavy Intensity Rain20°C11 mph, SW100%6209m1002hPa98%
18-Jun-2024 15:00Light Rain21°C11 mph, S100%8484m1001hPa99%
18-Jun-2024 18:00Light Rain21°C13 mph, S100%10000m1001hPa99%
18-Jun-2024 21:00Light Rain22°C13 mph, S100%10000m1001hPa97%
19-Jun-2024 00:00Moderate Rain14°C11 mph, N100%0m1006hPa99%
19-Jun-2024 03:00Light Rain11°C9 mph, N100%0m1012hPa98%
19-Jun-2024 06:00Overcast Clouds10°C9 mph, NW97%10000m1016hPa94%
19-Jun-2024 09:00Overcast Clouds8°C4 mph, NW100%10000m1019hPa99%
19-Jun-2024 12:00Overcast Clouds10°C4 mph, NW100%10000m1021hPa93%
19-Jun-2024 15:00Overcast Clouds17°C7 mph, NW100%10000m1022hPa59%
19-Jun-2024 18:00Overcast Clouds21°C7 mph, NW88%10000m1023hPa38%
19-Jun-2024 21:00Overcast Clouds23°C7 mph, NW99%10000m1022hPa35%
20-Jun-2024 00:00Overcast Clouds20°C4 mph, NW96%10000m1023hPa54%
20-Jun-2024 03:00Clear Sky13°C4 mph, NW0%10000m1025hPa77%
20-Jun-2024 06:00Clear Sky11°C4 mph, N1%10000m1027hPa82%
20-Jun-2024 09:00Clear Sky10°C2 mph, E3%10000m1028hPa87%
20-Jun-2024 12:00Clear Sky13°C4 mph, SE1%10000m1028hPa77%
20-Jun-2024 15:00Clear Sky20°C7 mph, SE10%10000m1027hPa50%
20-Jun-2024 18:00Clear Sky24°C9 mph, S10%10000m1026hPa38%
20-Jun-2024 21:00Few Clouds25°C7 mph, SE18%10000m1024hPa38%